sensor_id;sensor_type;location;lat;lon;timestamp;pressure;altitude;pressure_sealevel;temperature;humidity
46782;BME280;32541;46.298;11.506;2023-06-22T00:01:54;90164.91;;;18.68;79.84
46782;BME280;32541;46.298;11.506;2023-06-22T00:04:19;90161.94;;;18.64;80.55
46782;BME280;32541;46.298;11.506;2023-06-22T00:06:45;90160.16;;;18.57;80.45
46782;BME280;32541;46.298;11.506;2023-06-22T00:09:10;90161.22;;;18.63;80.69
46782;BME280;32541;46.298;11.506;2023-06-22T00:11:36;90166.38;;;18.55;81.19
46782;BME280;32541;46.298;11.506;2023-06-22T00:14:02;90166.25;;;18.53;81.44
46782;BME280;32541;46.298;11.506;2023-06-22T00:16:27;90165.41;;;18.51;81.38
46782;BME280;32541;46.298;11.506;2023-06-22T00:18:53;90158.75;;;18.44;81.94
46782;BME280;32541;46.298;11.506;2023-06-22T00:21:18;90160.13;;;18.43;82.23
46782;BME280;32541;46.298;11.506;2023-06-22T00:23:46;90164.63;;;18.37;82.33
46782;BME280;32541;46.298;11.506;2023-06-22T00:26:12;90159.78;;;18.37;82.40
46782;BME280;32541;46.298;11.506;2023-06-22T00:28:38;90156.38;;;18.39;82.17
46782;BME280;32541;46.298;11.506;2023-06-22T00:31:03;90151.03;;;18.29;82.30
46782;BME280;32541;46.298;11.506;2023-06-22T00:33:29;90154.31;;;18.25;82.14
46782;BME280;32541;46.298;11.506;2023-06-22T00:35:54;90155.84;;;18.28;82.12
46782;BME280;32541;46.298;11.506;2023-06-22T00:38:19;90150.28;;;18.28;81.85
46782;BME280;32541;46.298;11.506;2023-06-22T00:40:45;90150.13;;;18.13;82.25
46782;BME280;32541;46.298;11.506;2023-06-22T00:43:11;90152.81;;;18.11;82.57
46782;BME280;32541;46.298;11.506;2023-06-22T00:45:36;90153.31;;;18.07;82.97
46782;BME280;32541;46.298;11.506;2023-06-22T00:48:02;90154.94;;;17.99;83.45
46782;BME280;32541;46.298;11.506;2023-06-22T00:50:35;90155.34;;;17.93;83.47
46782;BME280;32541;46.298;11.506;2023-06-22T00:53:08;90152.56;;;17.93;83.16
46782;BME280;32541;46.298;11.506;2023-06-22T00:55:41;90165.50;;;17.89;83.48
46782;BME280;32541;46.298;11.506;2023-06-22T00:58:08;90163.84;;;17.84;82.91
46782;BME280;32541;46.298;11.506;2023-06-22T01:00:36;90148.38;;;17.81;83.45
46782;BME280;32541;46.298;11.506;2023-06-22T01:03:02;90155.81;;;17.90;83.76
46782;BME280;32541;46.298;11.506;2023-06-22T01:05:28;90155.16;;;17.77;84.14
46782;BME280;32541;46.298;11.506;2023-06-22T01:16:26;90153.50;;;17.61;82.72
46782;BME280;32541;46.298;11.506;2023-06-22T01:18:56;90146.31;;;17.44;82.31
46782;BME280;32541;46.298;11.506;2023-06-22T01:21:24;90157.66;;;17.48;82.43
46782;BME280;32541;46.298;11.506;2023-06-22T01:24:08;90148.72;;;17.38;83.05
46782;BME280;32541;46.298;11.506;2023-06-22T01:26:42;90145.47;;;17.42;83.75
46782;BME280;32541;46.298;11.506;2023-06-22T01:29:11;90138.78;;;17.47;84.14
46782;BME280;32541;46.298;11.506;2023-06-22T01:31:39;90140.31;;;17.25;83.45
46782;BME280;32541;46.298;11.506;2023-06-22T01:34:07;90140.09;;;17.20;84.56
46782;BME280;32541;46.298;11.506;2023-06-22T01:36:34;90156.50;;;17.28;84.78
46782;BME280;32541;46.298;11.506;2023-06-22T01:39:00;90147.56;;;17.30;85.34
46782;BME280;32541;46.298;11.506;2023-06-22T01:41:29;90159.66;;;17.22;84.98
46782;BME280;32541;46.298;11.506;2023-06-22T01:43:55;90148.66;;;17.25;84.78
46782;BME280;32541;46.298;11.506;2023-06-22T01:46:21;90152.88;;;17.26;85.04
46782;BME280;32541;46.298;11.506;2023-06-22T01:48:47;90157.94;;;17.29;85.01
46782;BME280;32541;46.298;11.506;2023-06-22T01:51:14;90157.00;;;17.25;84.24
46782;BME280;32541;46.298;11.506;2023-06-22T01:53:40;90157.59;;;17.23;85.30
46782;BME280;32541;46.298;11.506;2023-06-22T01:56:05;90156.50;;;17.28;85.23
46782;BME280;32541;46.298;11.506;2023-06-22T01:58:31;90156.41;;;17.14;85.02
46782;BME280;32541;46.298;11.506;2023-06-22T02:01:10;90163.81;;;17.10;84.65
46782;BME280;32541;46.298;11.506;2023-06-22T02:03:48;90155.91;;;17.18;84.45
46782;BME280;32541;46.298;11.506;2023-06-22T02:06:21;90165.38;;;17.13;84.76
46782;BME280;32541;46.298;11.506;2023-06-22T02:08:53;90162.59;;;17.13;84.80
46782;BME280;32541;46.298;11.506;2023-06-22T02:11:20;90152.41;;;17.17;84.82
46782;BME280;32541;46.298;11.506;2023-06-22T02:13:47;90153.75;;;17.05;85.56
46782;BME280;32541;46.298;11.506;2023-06-22T02:16:14;90159.22;;;16.91;85.78
46782;BME280;32541;46.298;11.506;2023-06-22T02:18:48;90164.31;;;16.95;85.51
46782;BME280;32541;46.298;11.506;2023-06-22T02:21:16;90154.06;;;16.74;87.03
46782;BME280;32541;46.298;11.506;2023-06-22T02:23:41;90161.28;;;16.79;86.21
46782;BME280;32541;46.298;11.506;2023-06-22T02:26:07;90161.78;;;16.76;85.65
46782;BME280;32541;46.298;11.506;2023-06-22T02:28:32;90157.31;;;16.71;85.31
46782;BME280;32541;46.298;11.506;2023-06-22T02:30:58;90156.47;;;16.68;86.73
46782;BME280;32541;46.298;11.506;2023-06-22T02:33:23;90156.69;;;16.72;86.94
46782;BME280;32541;46.298;11.506;2023-06-22T02:35:48;90170.59;;;16.60;87.46
46782;BME280;32541;46.298;11.506;2023-06-22T02:38:14;90165.97;;;16.53;87.76
46782;BME280;32541;46.298;11.506;2023-06-22T02:40:40;90166.84;;;16.56;87.87
46782;BME280;32541;46.298;11.506;2023-06-22T02:43:05;90175.19;;;16.56;87.06
46782;BME280;32541;46.298;11.506;2023-06-22T02:45:31;90170.09;;;16.64;87.06
46782;BME280;32541;46.298;11.506;2023-06-22T02:47:56;90166.84;;;16.56;87.11
46782;BME280;32541;46.298;11.506;2023-06-22T02:50:22;90173.69;;;16.43;87.22
46782;BME280;32541;46.298;11.506;2023-06-22T02:52:48;90177.78;;;16.42;87.74
46782;BME280;32541;46.298;11.506;2023-06-22T02:55:13;90169.47;;;16.42;87.12
46782;BME280;32541;46.298;11.506;2023-06-22T02:57:39;90168.63;;;16.51;86.14
46782;BME280;32541;46.298;11.506;2023-06-22T03:00:11;90174.47;;;16.55;85.18
46782;BME280;32541;46.298;11.506;2023-06-22T03:02:44;90172.00;;;16.50;85.76
46782;BME280;32541;46.298;11.506;2023-06-22T03:05:10;90169.59;;;16.44;86.46
46782;BME280;32541;46.298;11.506;2023-06-22T03:07:41;90172.00;;;16.50;86.48
46782;BME280;32541;46.298;11.506;2023-06-22T03:10:10;90182.28;;;16.47;85.14
46782;BME280;32541;46.298;11.506;2023-06-22T03:12:37;90172.38;;;16.33;85.83
46782;BME280;32541;46.298;11.506;2023-06-22T03:15:05;90176.94;;;16.40;85.95
46782;BME280;32541;46.298;11.506;2023-06-22T03:17:30;90190.09;;;16.39;86.87
46782;BME280;32541;46.298;11.506;2023-06-22T03:19:56;90190.81;;;16.28;87.15
46782;BME280;32541;46.298;11.506;2023-06-22T03:22:21;90191.53;;;16.29;87.37
46782;BME280;32541;46.298;11.506;2023-06-22T03:24:46;90197.91;;;16.20;85.38
46782;BME280;32541;46.298;11.506;2023-06-22T03:27:12;90192.25;;;16.18;84.62
46782;BME280;32541;46.298;11.506;2023-06-22T03:29:38;90192.47;;;16.22;85.22
46782;BME280;32541;46.298;11.506;2023-06-22T03:32:03;90195.50;;;16.14;86.83
46782;BME280;32541;46.298;11.506;2023-06-22T03:34:31;90198.25;;;16.14;87.37
46782;BME280;32541;46.298;11.506;2023-06-22T03:36:59;90191.41;;;16.15;86.42
46782;BME280;32541;46.298;11.506;2023-06-22T03:39:24;90199.50;;;16.23;86.43
46782;BME280;32541;46.298;11.506;2023-06-22T03:41:50;90205.31;;;16.38;86.99
46782;BME280;32541;46.298;11.506;2023-06-22T03:44:15;90208.06;;;16.27;87.74
46782;BME280;32541;46.298;11.506;2023-06-22T03:46:40;90208.44;;;16.21;87.85
46782;BME280;32541;46.298;11.506;2023-06-22T03:49:06;90206.72;;;16.28;87.22
46782;BME280;32541;46.298;11.506;2023-06-22T03:51:32;90209.38;;;16.26;87.60
46782;BME280;32541;46.298;11.506;2023-06-22T03:53:58;90211.56;;;16.27;87.68
46782;BME280;32541;46.298;11.506;2023-06-22T03:56:23;90203.00;;;16.23;87.40
46782;BME280;32541;46.298;11.506;2023-06-22T03:58:48;90212.06;;;16.35;87.60
46782;BME280;32541;46.298;11.506;2023-06-22T04:01:14;90210.88;;;16.38;88.44
46782;BME280;32541;46.298;11.506;2023-06-22T04:03:42;90199.75;;;16.38;88.15
46782;BME280;32541;46.298;11.506;2023-06-22T04:06:07;90207.63;;;16.42;88.28
46782;BME280;32541;46.298;11.506;2023-06-22T04:08:33;90198.78;;;16.45;88.33
46782;BME280;32541;46.298;11.506;2023-06-22T04:10:58;90201.34;;;16.53;88.26
46782;BME280;32541;46.298;11.506;2023-06-22T04:13:24;90200.41;;;16.60;88.08
46782;BME280;32541;46.298;11.506;2023-06-22T04:15:49;90200.41;;;16.60;88.28
46782;BME280;32541;46.298;11.506;2023-06-22T04:18:14;90189.44;;;16.62;88.46
46782;BME280;32541;46.298;11.506;2023-06-22T04:20:40;90187.25;;;16.84;88.19
46782;BME280;32541;46.298;11.506;2023-06-22T04:23:05;90190.53;;;16.80;87.72
46782;BME280;32541;46.298;11.506;2023-06-22T04:25:30;90182.19;;;16.69;86.92
46782;BME280;32541;46.298;11.506;2023-06-22T04:27:56;90184.25;;;16.80;86.39
46782;BME280;32541;46.298;11.506;2023-06-22T04:30:21;90173.97;;;16.82;86.69
46782;BME280;32541;46.298;11.506;2023-06-22T04:32:47;90174.22;;;16.86;86.37
46782;BME280;32541;46.298;11.506;2023-06-22T04:35:21;90181.19;;;16.99;86.23
46782;BME280;32541;46.298;11.506;2023-06-22T04:37:48;90180.47;;;17.10;85.96
46782;BME280;32541;46.298;11.506;2023-06-22T04:40:15;90178.50;;;17.24;86.13
46782;BME280;32541;46.298;11.506;2023-06-22T04:42:40;90179.00;;;17.09;84.92
46782;BME280;32541;46.298;11.506;2023-06-22T04:45:08;90164.31;;;16.95;85.03
46782;BME280;32541;46.298;11.506;2023-06-22T04:47:34;90171.44;;;16.98;85.23
46782;BME280;32541;46.298;11.506;2023-06-22T04:49:59;90170.75;;;17.22;84.31
46782;BME280;32541;46.298;11.506;2023-06-22T04:52:31;90164.72;;;17.26;85.58
46782;BME280;32541;46.298;11.506;2023-06-22T04:54:56;90164.13;;;17.28;85.46
46782;BME280;32541;46.298;11.506;2023-06-22T04:57:22;90169.31;;;17.33;86.80
46782;BME280;32541;46.298;11.506;2023-06-22T04:59:55;90166.75;;;17.37;86.84
46782;BME280;32541;46.298;11.506;2023-06-22T05:02:21;90156.34;;;17.38;86.79
46782;BME280;32541;46.298;11.506;2023-06-22T05:04:46;90156.94;;;17.48;86.58
46782;BME280;32541;46.298;11.506;2023-06-22T05:07:16;90157.88;;;17.52;86.44
46782;BME280;32541;46.298;11.506;2023-06-22T05:09:41;90158.47;;;17.62;85.72
46782;BME280;32541;46.298;11.506;2023-06-22T05:12:07;90148.91;;;17.65;85.66
46782;BME280;32541;46.298;11.506;2023-06-22T05:14:32;90156.97;;;17.73;85.31
46782;BME280;32541;46.298;11.506;2023-06-22T05:16:58;90148.13;;;17.76;85.44
46782;BME280;32541;46.298;11.506;2023-06-22T05:19:24;90154.44;;;17.77;84.73
46782;BME280;32541;46.298;11.506;2023-06-22T05:21:50;90152.91;;;17.88;84.32
46782;BME280;32541;46.298;11.506;2023-06-22T05:24:15;90154.22;;;17.98;83.07
46782;BME280;32541;46.298;11.506;2023-06-22T05:26:40;90158.16;;;18.07;84.17
46782;BME280;32541;46.298;11.506;2023-06-22T05:29:06;90161.69;;;18.21;83.97
46782;BME280;32541;46.298;11.506;2023-06-22T05:31:31;90164.31;;;18.30;83.88
46782;BME280;32541;46.298;11.506;2023-06-22T05:33:57;90161.53;;;18.44;83.31
46782;BME280;32541;46.298;11.506;2023-06-22T05:36:22;90157.34;;;18.43;81.89
46782;BME280;32541;46.298;11.506;2023-06-22T05:38:52;90159.13;;;18.50;82.49
46782;BME280;32541;46.298;11.506;2023-06-22T05:41:17;90163.56;;;18.55;82.47
46782;BME280;32541;46.298;11.506;2023-06-22T05:43:43;90165.88;;;18.72;80.89
46782;BME280;32541;46.298;11.506;2023-06-22T05:46:08;90161.84;;;18.75;80.00
46782;BME280;32541;46.298;11.506;2023-06-22T05:48:33;90161.75;;;18.73;81.13
46782;BME280;32541;46.298;11.506;2023-06-22T05:50:59;90165.78;;;18.84;82.20
46782;BME280;32541;46.298;11.506;2023-06-22T05:53:25;90159.78;;;18.90;81.97
46782;BME280;32541;46.298;11.506;2023-06-22T05:55:50;90167.22;;;18.99;82.45
46782;BME280;32541;46.298;11.506;2023-06-22T05:58:15;90163.59;;;19.10;82.36
46782;BME280;32541;46.298;11.506;2023-06-22T06:00:41;90165.59;;;19.21;81.45
46782;BME280;32541;46.298;11.506;2023-06-22T06:03:08;90164.75;;;19.32;79.44
46782;BME280;32541;46.298;11.506;2023-06-22T06:05:35;90164.97;;;19.36;79.09
46782;BME280;32541;46.298;11.506;2023-06-22T06:08:02;90169.50;;;19.43;79.74
46782;BME280;32541;46.298;11.506;2023-06-22T06:10:28;90165.56;;;19.48;79.45
46782;BME280;32541;46.298;11.506;2023-06-22T06:12:55;90159.47;;;19.52;78.62
46782;BME280;32541;46.298;11.506;2023-06-22T06:15:20;90162.69;;;19.60;78.54
46782;BME280;32541;46.298;11.506;2023-06-22T06:17:50;90151.91;;;19.68;78.69
46782;BME280;32541;46.298;11.506;2023-06-22T06:20:19;90154.56;;;19.79;78.48
46782;BME280;32541;46.298;11.506;2023-06-22T06:22:45;90157.28;;;19.93;77.80
46782;BME280;32541;46.298;11.506;2023-06-22T06:25:10;90157.69;;;20.01;77.88
46782;BME280;32541;46.298;11.506;2023-06-22T06:27:41;90148.59;;;20.01;77.35
46782;BME280;32541;46.298;11.506;2023-06-22T06:30:07;90143.09;;;20.03;76.76
46782;BME280;32541;46.298;11.506;2023-06-22T06:32:33;90147.59;;;19.94;76.77
46782;BME280;32541;46.298;11.506;2023-06-22T06:34:58;90142.28;;;19.71;78.11
46782;BME280;32541;46.298;11.506;2023-06-22T06:37:23;90139.06;;;19.76;78.95
46782;BME280;32541;46.298;11.506;2023-06-22T06:39:49;90135.03;;;19.79;79.52
46782;BME280;32541;46.298;11.506;2023-06-22T06:42:14;90142.09;;;19.96;78.62
46782;BME280;32541;46.298;11.506;2023-06-22T06:44:39;90146.31;;;19.97;77.68
46782;BME280;32541;46.298;11.506;2023-06-22T06:47:05;90122.03;;;20.00;76.53
46782;BME280;32541;46.298;11.506;2023-06-22T06:49:30;90127.69;;;20.02;77.32
46782;BME280;32541;46.298;11.506;2023-06-22T06:51:55;90128.19;;;20.12;77.33
46782;BME280;32541;46.298;11.506;2023-06-22T06:54:21;90132.75;;;20.34;77.39
46782;BME280;32541;46.298;11.506;2023-06-22T06:56:47;90123.22;;;20.39;76.31
46782;BME280;32541;46.298;11.506;2023-06-22T06:59:16;90132.75;;;20.50;74.81
46782;BME280;32541;46.298;11.506;2023-06-22T07:01:42;90129.53;;;20.40;75.11
46782;BME280;32541;46.298;11.506;2023-06-22T07:04:09;90122.66;;;20.43;75.61
46782;BME280;32541;46.298;11.506;2023-06-22T07:06:35;90123.03;;;20.51;72.85
46782;BME280;32541;46.298;11.506;2023-06-22T07:09:00;90130.38;;;20.29;75.16
46782;BME280;32541;46.298;11.506;2023-06-22T07:11:26;90127.25;;;19.78;75.32
46782;BME280;32541;46.298;11.506;2023-06-22T07:13:52;90121.72;;;19.93;75.87
46782;BME280;32541;46.298;11.506;2023-06-22T07:16:17;90134.50;;;19.83;75.75
46782;BME280;32541;46.298;11.506;2023-06-22T07:18:43;90129.06;;;19.71;76.93
46782;BME280;32541;46.298;11.506;2023-06-22T07:21:09;90124.47;;;19.78;75.82
46782;BME280;32541;46.298;11.506;2023-06-22T07:23:35;90126.16;;;19.98;75.76
46782;BME280;32541;46.298;11.506;2023-06-22T07:26:01;90134.13;;;20.20;74.76
46782;BME280;32541;46.298;11.506;2023-06-22T07:28:28;90123.75;;;20.36;74.19
46782;BME280;32541;46.298;11.506;2023-06-22T07:30:57;90119.84;;;20.43;73.84
46782;BME280;32541;46.298;11.506;2023-06-22T07:33:22;90131.69;;;20.57;73.77
46782;BME280;32541;46.298;11.506;2023-06-22T07:35:48;90122.13;;;20.62;73.59
46782;BME280;32541;46.298;11.506;2023-06-22T07:38:16;90118.81;;;20.81;73.52
46782;BME280;32541;46.298;11.506;2023-06-22T07:40:41;90118.16;;;20.98;73.65
46782;BME280;32541;46.298;11.506;2023-06-22T07:43:07;90104.72;;;21.11;71.97
46782;BME280;32541;46.298;11.506;2023-06-22T07:45:32;90106.59;;;21.22;72.55
46782;BME280;32541;46.298;11.506;2023-06-22T07:48:00;90101.50;;;21.34;72.33
46782;BME280;32541;46.298;11.506;2023-06-22T07:50:26;90093.06;;;21.49;71.54
46782;BME280;32541;46.298;11.506;2023-06-22T07:52:51;90099.97;;;21.64;71.48
46782;BME280;32541;46.298;11.506;2023-06-22T07:55:18;90103.50;;;21.65;72.88
46782;BME280;32541;46.298;11.506;2023-06-22T07:57:44;90108.38;;;21.82;72.14
46782;BME280;32541;46.298;11.506;2023-06-22T08:00:10;90101.84;;;21.93;72.08
46782;BME280;32541;46.298;11.506;2023-06-22T08:02:41;90095.28;;;22.04;70.69
46782;BME280;32541;46.298;11.506;2023-06-22T08:05:08;90099.22;;;22.14;69.41
46782;BME280;32541;46.298;11.506;2023-06-22T08:07:38;90100.31;;;22.25;70.10
46782;BME280;32541;46.298;11.506;2023-06-22T08:10:05;90091.41;;;22.31;68.91
46782;BME280;32541;46.298;11.506;2023-06-22T08:12:30;90096.63;;;21.85;69.84
46782;BME280;32541;46.298;11.506;2023-06-22T08:14:56;90088.50;;;21.91;69.56
46782;BME280;32541;46.298;11.506;2023-06-22T08:17:23;90081.47;;;21.90;69.92
46782;BME280;32541;46.298;11.506;2023-06-22T08:19:49;90079.22;;;22.04;69.58
46782;BME280;32541;46.298;11.506;2023-06-22T08:22:15;90075.13;;;22.07;68.65
46782;BME280;32541;46.298;11.506;2023-06-22T08:24:41;90073.34;;;22.16;68.53
46782;BME280;32541;46.298;11.506;2023-06-22T08:27:10;90070.13;;;21.71;67.62
46782;BME280;32541;46.298;11.506;2023-06-22T08:29:38;90073.34;;;21.81;70.26
46782;BME280;32541;46.298;11.506;2023-06-22T08:32:04;90072.94;;;21.71;68.27
46782;BME280;32541;46.298;11.506;2023-06-22T08:34:30;90076.31;;;21.67;67.53
46782;BME280;32541;46.298;11.506;2023-06-22T08:36:56;90074.94;;;21.86;67.00
46782;BME280;32541;46.298;11.506;2023-06-22T08:39:22;90076.78;;;22.32;66.25
46782;BME280;32541;46.298;11.506;2023-06-22T08:41:48;90066.97;;;22.51;65.00
46782;BME280;32541;46.298;11.506;2023-06-22T08:44:13;90068.94;;;22.66;66.60
46782;BME280;32541;46.298;11.506;2023-06-22T08:46:39;90069.78;;;22.88;64.97
46782;BME280;32541;46.298;11.506;2023-06-22T08:49:06;90074.44;;;23.01;64.13
46782;BME280;32541;46.298;11.506;2023-06-22T08:51:32;90060.41;;;23.41;63.47
46782;BME280;32541;46.298;11.506;2023-06-22T08:53:58;90068.84;;;23.62;61.95
46782;BME280;32541;46.298;11.506;2023-06-22T08:56:23;90058.94;;;23.59;64.39
46782;BME280;32541;46.298;11.506;2023-06-22T08:58:49;90057.22;;;23.50;61.31
46782;BME280;32541;46.298;11.506;2023-06-22T09:01:14;90058.25;;;23.61;62.50
46782;BME280;32541;46.298;11.506;2023-06-22T09:03:41;90056.00;;;23.77;59.52
46782;BME280;32541;46.298;11.506;2023-06-22T09:06:06;90045.41;;;23.97;58.84
46782;BME280;32541;46.298;11.506;2023-06-22T09:08:34;90047.91;;;23.87;58.20
46782;BME280;32541;46.298;11.506;2023-06-22T09:11:00;90046.50;;;23.88;57.75
46782;BME280;32541;46.298;11.506;2023-06-22T09:13:25;90052.28;;;23.92;58.70
46782;BME280;32541;46.298;11.506;2023-06-22T09:15:51;90052.06;;;24.08;59.74
46782;BME280;32541;46.298;11.506;2023-06-22T09:18:17;90046.78;;;23.96;57.40
46782;BME280;32541;46.298;11.506;2023-06-22T09:20:43;90046.31;;;24.25;57.43
46782;BME280;32541;46.298;11.506;2023-06-22T09:23:10;90038.38;;;24.42;56.57
46782;BME280;32541;46.298;11.506;2023-06-22T09:25:35;90038.66;;;24.52;56.64
46782;BME280;32541;46.298;11.506;2023-06-22T09:28:01;90033.88;;;24.56;56.54
46782;BME280;32541;46.298;11.506;2023-06-22T09:30:27;90037.72;;;24.67;55.72
46782;BME280;32541;46.298;11.506;2023-06-22T09:32:53;90031.69;;;25.02;55.62
46782;BME280;32541;46.298;11.506;2023-06-22T09:35:19;90036.09;;;25.35;54.91
46782;BME280;32541;46.298;11.506;2023-06-22T09:37:45;90034.34;;;25.48;52.63
46782;BME280;32541;46.298;11.506;2023-06-22T09:40:11;90022.00;;;25.61;53.33
46782;BME280;32541;46.298;11.506;2023-06-22T09:42:38;90023.47;;;25.91;55.03
46782;BME280;32541;46.298;11.506;2023-06-22T09:45:04;90022.22;;;25.98;51.90
46782;BME280;32541;46.298;11.506;2023-06-22T09:47:30;90024.06;;;25.86;50.36
46782;BME280;32541;46.298;11.506;2023-06-22T09:49:56;90013.88;;;25.73;50.11
46782;BME280;32541;46.298;11.506;2023-06-22T09:52:22;90014.44;;;25.97;48.91
46782;BME280;32541;46.298;11.506;2023-06-22T09:54:47;90004.97;;;26.14;48.87
46782;BME280;32541;46.298;11.506;2023-06-22T09:57:13;90009.84;;;25.82;49.66
46782;BME280;32541;46.298;11.506;2023-06-22T09:59:38;90008.13;;;25.69;50.49
46782;BME280;32541;46.298;11.506;2023-06-22T10:02:07;90010.47;;;25.78;52.27
46782;BME280;32541;46.298;11.506;2023-06-22T10:04:33;90019.22;;;26.18;51.71
46782;BME280;32541;46.298;11.506;2023-06-22T10:06:59;90011.81;;;26.35;51.09
46782;BME280;32541;46.298;11.506;2023-06-22T10:09:24;90020.88;;;26.29;52.13
46782;BME280;32541;46.298;11.506;2023-06-22T10:11:50;90019.63;;;26.36;52.40
46782;BME280;32541;46.298;11.506;2023-06-22T10:14:15;90023.25;;;26.41;50.85
46782;BME280;32541;46.298;11.506;2023-06-22T10:16:41;90020.97;;;26.04;52.83
46782;BME280;32541;46.298;11.506;2023-06-22T10:19:07;90029.41;;;26.04;52.29
46782;BME280;32541;46.298;11.506;2023-06-22T10:21:32;90019.81;;;26.15;54.28
46782;BME280;32541;46.298;11.506;2023-06-22T10:23:58;90029.56;;;26.39;52.65
46782;BME280;32541;46.298;11.506;2023-06-22T10:26:26;90017.16;;;26.84;52.96
46782;BME280;32541;46.298;11.506;2023-06-22T10:28:54;90010.03;;;27.17;53.80
46782;BME280;32541;46.298;11.506;2023-06-22T10:31:19;90004.13;;;27.41;52.80
46782;BME280;32541;46.298;11.506;2023-06-22T10:33:45;90006.34;;;26.75;51.23
46782;BME280;32541;46.298;11.506;2023-06-22T10:36:11;90003.50;;;27.07;51.60
46782;BME280;32541;46.298;11.506;2023-06-22T10:38:36;90003.22;;;27.28;51.75
46782;BME280;32541;46.298;11.506;2023-06-22T10:41:01;89997.25;;;27.48;49.59
46782;BME280;32541;46.298;11.506;2023-06-22T10:43:27;89992.34;;;27.15;48.58
46782;BME280;32541;46.298;11.506;2023-06-22T10:45:53;89990.19;;;27.49;47.66
46782;BME280;32541;46.298;11.506;2023-06-22T10:48:18;89980.84;;;27.80;47.27
46782;BME280;32541;46.298;11.506;2023-06-22T10:50:44;89984.22;;;27.71;46.44
46782;BME280;32541;46.298;11.506;2023-06-22T10:53:09;89992.53;;;27.61;48.24
46782;BME280;32541;46.298;11.506;2023-06-22T10:55:34;89978.28;;;27.54;47.90
46782;BME280;32541;46.298;11.506;2023-06-22T10:58:00;89967.34;;;27.77;45.40
46782;BME280;32541;46.298;11.506;2023-06-22T11:00:26;89971.41;;;27.66;46.09
46782;BME280;32541;46.298;11.506;2023-06-22T11:02:51;89962.41;;;27.75;45.19
46782;BME280;32541;46.298;11.506;2023-06-22T11:05:16;89976.94;;;27.57;45.80
46782;BME280;32541;46.298;11.506;2023-06-22T11:07:43;89966.88;;;27.11;46.36
46782;BME280;32541;46.298;11.506;2023-06-22T11:10:09;89967.28;;;27.33;45.57
46782;BME280;32541;46.298;11.506;2023-06-22T11:12:34;89959.44;;;27.67;47.51
46782;BME280;32541;46.298;11.506;2023-06-22T11:15:00;89958.91;;;28.23;46.78
46782;BME280;32541;46.298;11.506;2023-06-22T11:17:26;89952.19;;;28.48;46.22
46782;BME280;32541;46.298;11.506;2023-06-22T11:19:51;89952.78;;;28.90;44.53
46782;BME280;32541;46.298;11.506;2023-06-22T11:22:17;89955.16;;;29.10;44.72
46782;BME280;32541;46.298;11.506;2023-06-22T11:24:42;89956.66;;;29.19;43.88
46782;BME280;32541;46.298;11.506;2023-06-22T11:27:07;89949.94;;;29.52;42.91
46782;BME280;32541;46.298;11.506;2023-06-22T11:29:33;89944.06;;;29.32;44.36
46782;BME280;32541;46.298;11.506;2023-06-22T11:31:58;89950.72;;;29.57;44.73
46782;BME280;32541;46.298;11.506;2023-06-22T11:34:24;89937.38;;;29.71;41.14
46782;BME280;32541;46.298;11.506;2023-06-22T11:36:49;89934.56;;;29.75;42.54
46782;BME280;32541;46.298;11.506;2023-06-22T11:39:15;89928.41;;;29.99;43.76
46782;BME280;32541;46.298;11.506;2023-06-22T11:41:41;89923.63;;;30.24;42.64
46782;BME280;32541;46.298;11.506;2023-06-22T11:44:07;89928.88;;;29.71;42.48
46782;BME280;32541;46.298;11.506;2023-06-22T11:46:32;89933.75;;;28.97;45.49
46782;BME280;32541;46.298;11.506;2023-06-22T11:48:58;89930.28;;;29.04;43.27
46782;BME280;32541;46.298;11.506;2023-06-22T11:51:24;89919.00;;;29.08;42.57
46782;BME280;32541;46.298;11.506;2023-06-22T11:53:51;89919.31;;;29.35;42.94
46782;BME280;32541;46.298;11.506;2023-06-22T11:56:17;89928.59;;;28.79;43.76
46782;BME280;32541;46.298;11.506;2023-06-22T11:58:42;89926.34;;;28.72;42.93
46782;BME280;32541;46.298;11.506;2023-06-22T12:01:08;89907.97;;;28.73;43.52
46782;BME280;32541;46.298;11.506;2023-06-22T12:03:33;89912.47;;;28.94;43.43
46782;BME280;32541;46.298;11.506;2023-06-22T12:05:59;89907.25;;;28.72;43.63
46782;BME280;32541;46.298;11.506;2023-06-22T12:08:25;89906.09;;;28.95;43.11
46782;BME280;32541;46.298;11.506;2023-06-22T12:10:50;89897.06;;;29.09;43.47
46782;BME280;32541;46.298;11.506;2023-06-22T12:13:15;89899.69;;;28.91;43.97
46782;BME280;32541;46.298;11.506;2023-06-22T12:15:41;89900.63;;;29.11;42.15
46782;BME280;32541;46.298;11.506;2023-06-22T12:18:07;89891.34;;;29.05;41.99
46782;BME280;32541;46.298;11.506;2023-06-22T12:20:33;89888.81;;;29.29;41.36
46782;BME280;32541;46.298;11.506;2023-06-22T12:22:59;89881.38;;;29.70;40.74
46782;BME280;32541;46.298;11.506;2023-06-22T12:25:24;89881.63;;;29.98;41.65
46782;BME280;32541;46.298;11.506;2023-06-22T12:27:50;89881.06;;;30.26;39.16
46782;BME280;32541;46.298;11.506;2023-06-22T12:30:16;89881.28;;;30.54;41.33
46782;BME280;32541;46.298;11.506;2023-06-22T12:32:41;89883.53;;;30.82;40.11
46782;BME280;32541;46.298;11.506;2023-06-22T12:35:08;89874.44;;;31.12;37.71
46782;BME280;32541;46.298;11.506;2023-06-22T12:37:40;89870.19;;;31.27;38.02
46782;BME280;32541;46.298;11.506;2023-06-22T12:40:06;89880.88;;;31.32;37.74
46782;BME280;32541;46.298;11.506;2023-06-22T12:42:32;89868.78;;;31.36;37.64
46782;BME280;32541;46.298;11.506;2023-06-22T12:44:58;89863.84;;;31.49;37.34
46782;BME280;32541;46.298;11.506;2023-06-22T12:47:23;89861.75;;;31.61;34.53
46782;BME280;32541;46.298;11.506;2023-06-22T12:49:49;89861.72;;;31.57;35.52
46782;BME280;32541;46.298;11.506;2023-06-22T12:52:15;89856.06;;;31.69;32.70
46782;BME280;32541;46.298;11.506;2023-06-22T12:54:41;89850.38;;;31.75;33.34